createdAt,value
2022-11-17T00:02:27.198Z,7.9
2022-11-17T00:08:06.196Z,7.9
2022-11-17T00:13:50.592Z,7.9
2022-11-17T00:18:57.600Z,7.9
2022-11-17T00:24:34.569Z,7.9
2022-11-17T00:29:56.431Z,7.9
2022-11-17T00:35:19.630Z,7.9
2022-11-17T00:40:26.789Z,7.9
2022-11-17T00:46:04.306Z,8
2022-11-17T00:50:56.254Z,8
2022-11-17T00:56:04.049Z,8
2022-11-17T01:01:26.343Z,8
2022-11-17T01:06:33.749Z,8
2022-11-17T01:11:56.812Z,8.1
2022-11-17T01:17:18.801Z,8.1
2022-11-17T01:22:56.939Z,8.1
2022-11-17T01:27:48.709Z,8.1
2022-11-17T01:32:55.708Z,8.1
2022-11-17T01:37:46.930Z,8.1
2022-11-17T01:43:08.969Z,8.1
2022-11-17T01:48:16.639Z,8.1
2022-11-17T01:53:38.301Z,8.1
2022-11-17T01:59:00.595Z,8.1
2022-11-17T02:04:23.926Z,8.2
2022-11-17T02:10:01.288Z,8.2
2022-11-17T02:15:39.561Z,8.2
2022-11-17T02:21:12.095Z,8.2
2022-11-17T02:31:28.678Z,8.2
2022-11-17T02:41:57.616Z,8.2
2022-11-17T02:47:20.677Z,8.3
2022-11-17T02:52:46.856Z,8.2
2022-11-17T02:57:54.239Z,8.3
2022-11-17T03:03:16.355Z,8.3
2022-11-17T03:08:41.377Z,8.3
2022-11-17T03:14:18.540Z,8.3
2022-11-17T03:19:56.446Z,8.3
2022-11-17T03:25:34.664Z,8.3
2022-11-17T03:31:15.452Z,8.3
2022-11-17T03:36:59.083Z,8.3
2022-11-17T03:42:37.379Z,8.4
2022-11-17T03:52:51.315Z,8.4
2022-11-17T04:03:51.667Z,8.4
2022-11-17T04:09:14.744Z,8.4
2022-11-17T04:14:54.957Z,8.4
2022-11-17T04:20:35.183Z,8.4
2022-11-17T04:26:13.786Z,8.4
2022-11-17T04:31:35.997Z,8.4
2022-11-17T04:37:13.586Z,8.4
2022-11-17T04:42:36.074Z,8.4
2022-11-17T04:48:14.564Z,8.4
2022-11-17T04:53:57.052Z,8.4
2022-11-17T04:59:22.440Z,8.4
2022-11-17T05:04:45.899Z,8.4
2022-11-17T05:10:23.259Z,8.4
2022-11-17T05:21:10.959Z,8.4
2022-11-17T05:26:48.435Z,8.4
2022-11-17T05:32:26.326Z,8.4
2022-11-17T05:38:09.309Z,8.4
2022-11-17T05:43:52.169Z,8.4
2022-11-17T05:49:15.005Z,8.4
2022-11-17T06:05:18.821Z,8.5
2022-11-17T06:10:43.150Z,8.5
2022-11-17T06:16:21.504Z,8.6
2022-11-17T06:22:04.830Z,8.6
2022-11-17T06:27:37.554Z,8.6
2022-11-17T06:33:16.482Z,8.6
2022-11-17T06:38:38.717Z,8.7
2022-11-17T06:44:20.885Z,8.8
2022-11-17T06:49:59.040Z,8.8
2022-11-17T06:55:43.793Z,8.9
2022-11-17T07:01:07.157Z,8.9
2022-11-17T07:06:30.761Z,9
2022-11-17T07:12:14.471Z,9.1
2022-11-17T07:17:37.204Z,9.1
2022-11-17T07:28:44.932Z,9.4
2022-11-17T07:34:23.560Z,9.6
2022-11-17T07:40:02.302Z,9.9
2022-11-17T07:45:44.032Z,10.2
2022-11-17T07:51:22.214Z,10.6
2022-11-17T07:56:45.633Z,11.1
2022-11-17T08:02:30.709Z,12.3
2022-11-17T08:08:00.143Z,14.9
2022-11-17T08:13:08.669Z,16.3
2022-11-17T08:18:33.073Z,16.6
2022-11-17T08:23:58.502Z,16.4
2022-11-17T08:29:21.690Z,16.6
2022-11-17T08:34:44.520Z,19.3
2022-11-17T08:40:10.419Z,30.9
2022-11-17T08:45:53.051Z,36.4
2022-11-17T08:56:56.698Z,41.3
2022-11-17T09:02:35.733Z,42.1
2022-11-17T09:08:45.346Z,43.6
2022-11-17T09:14:13.466Z,43.3
2022-11-17T09:19:52.234Z,44.7
2022-11-17T09:25:18.712Z,47.2
2022-11-17T09:30:43.049Z,48.6
2022-11-17T09:36:08.064Z,48.9
2022-11-17T09:41:32.952Z,49.1
2022-11-17T09:47:17.240Z,49.9
2022-11-17T09:53:12.058Z,51.6
2022-11-17T09:58:56.494Z,51.7
2022-11-17T10:04:40.527Z,49.9
2022-11-17T10:10:20.435Z,49
2022-11-17T10:15:58.647Z,48.6
2022-11-17T10:21:37.006Z,48.2
2022-11-17T10:27:15.404Z,47.7
2022-11-17T10:32:53.669Z,47.3
2022-11-17T10:38:38.475Z,49.3
2022-11-17T10:44:24.426Z,49
2022-11-17T10:50:11.801Z,51.2
2022-11-17T10:55:51.053Z,50.1
2022-11-17T11:01:29.005Z,49
2022-11-17T11:07:12.196Z,48.2
2022-11-17T11:12:50.576Z,47.6
2022-11-17T11:18:31.697Z,47.1
2022-11-17T11:23:54.052Z,46.9
2022-11-17T11:29:37.195Z,47.4
2022-11-17T11:35:17.403Z,47.9
2022-11-17T11:40:55.926Z,47.7
2022-11-17T11:46:39.370Z,46.9
2022-11-17T11:52:23.112Z,46.5
2022-11-17T11:57:48.827Z,46
2022-11-17T12:03:30.370Z,45.7
2022-11-17T12:09:09.055Z,45.1
2022-11-17T12:14:52.834Z,44.4
2022-11-17T12:20:31.288Z,43.8
2022-11-17T12:26:10.989Z,41.2
2022-11-17T12:31:49.082Z,38.6
2022-11-17T12:37:11.846Z,36.4
2022-11-17T12:42:50.274Z,35.1
2022-11-17T12:49:09.892Z,33.4
2022-11-17T12:54:48.910Z,32.1
2022-11-17T13:00:28.688Z,31.3
2022-11-17T13:06:38.974Z,30.8
2022-11-17T13:12:17.228Z,30.3
2022-11-17T13:18:00.363Z,29.7
2022-11-17T13:23:23.140Z,29.2
2022-11-17T13:28:52.028Z,31
2022-11-17T13:34:34.759Z,34.1
2022-11-17T13:40:18.884Z,38.5
2022-11-17T13:45:57.263Z,38.4
2022-11-17T13:51:35.439Z,37.4
2022-11-17T13:57:17.480Z,36.7
2022-11-17T14:02:57.611Z,36.1
2022-11-17T14:08:37.084Z,35.3
2022-11-17T14:14:15.320Z,34.3
2022-11-17T14:19:53.759Z,33.2
2022-11-17T14:25:39.994Z,31.9
2022-11-17T14:31:18.269Z,30.7
2022-11-17T14:37:08.710Z,29.5
2022-11-17T14:42:34.761Z,28.4
2022-11-17T14:48:19.010Z,27.3
2022-11-17T14:53:42.210Z,26.2
2022-11-17T14:58:49.663Z,25.2
2022-11-17T15:05:04.807Z,24.2
2022-11-17T15:10:47.779Z,23.1
2022-11-17T15:16:26.838Z,22.3
2022-11-17T15:21:49.569Z,21.4
2022-11-17T15:27:33.201Z,20.7
2022-11-17T15:32:56.736Z,20
2022-11-17T15:38:35.029Z,19.3
2022-11-17T15:44:06.151Z,18.8
2022-11-17T15:49:46.049Z,18.2
2022-11-17T15:55:56.591Z,17.6
2022-11-17T16:01:35.299Z,17.1
2022-11-17T16:06:57.879Z,16.7
2022-11-17T16:12:25.056Z,16.3
2022-11-17T16:18:02.752Z,15.6
2022-11-17T16:23:41.253Z,15.1
2022-11-17T16:29:03.502Z,14.6
2022-11-17T16:34:30.735Z,14.3
2022-11-17T16:40:41.017Z,13.8
2022-11-17T16:46:03.889Z,13.6
2022-11-17T16:51:41.250Z,13.2
2022-11-17T16:57:23.321Z,12.9
2022-11-17T17:02:45.766Z,12.7
2022-11-17T17:08:24.833Z,12.4
2022-11-17T17:13:47.722Z,12.2
2022-11-17T17:18:54.256Z,11.9
2022-11-17T17:24:32.910Z,11.8
2022-11-17T17:29:39.484Z,11.6
2022-11-17T17:35:19.531Z,11.4
2022-11-17T17:40:42.003Z,11.2
2022-11-17T17:46:19.831Z,11
2022-11-17T17:51:58.190Z,10.8
2022-11-17T17:57:04.867Z,10.6
2022-11-17T18:08:07.224Z,10.3
2022-11-17T18:13:49.038Z,10.1
2022-11-17T18:19:31.512Z,10
2022-11-17T18:25:17.760Z,9.9
2022-11-17T18:30:55.923Z,9.8
2022-11-17T18:36:34.131Z,9.6
2022-11-17T18:42:11.878Z,9.6
2022-11-17T18:47:56.262Z,9.4
2022-11-17T18:53:58.544Z,9.4
2022-11-17T18:59:36.577Z,9.3
2022-11-17T19:04:59.245Z,9.2
2022-11-17T19:10:37.281Z,9.1
2022-11-17T19:16:15.555Z,9.1
2022-11-17T19:21:54.347Z,8.9
2022-11-17T19:27:18.268Z,8.9
2022-11-17T19:32:43.792Z,8.8
2022-11-17T19:38:17.761Z,8.8
2022-11-17T19:44:01.663Z,8.6
2022-11-17T19:49:38.781Z,8.5
2022-11-17T19:55:16.289Z,8.4
2022-11-17T20:00:43.217Z,8.4
2022-11-17T20:06:05.949Z,8.3
2022-11-17T20:11:13.706Z,8.3
2022-11-17T20:16:49.870Z,8.2
2022-11-17T20:22:28.434Z,8.1
2022-11-17T20:27:56.491Z,8.1
2022-11-17T20:33:40.153Z,8
2022-11-17T20:39:19.850Z,7.9
2022-11-17T20:44:57.697Z,7.9
2022-11-17T20:50:19.918Z,7.8
2022-11-17T20:55:42.988Z,7.7
2022-11-17T21:01:22.700Z,7.6
2022-11-17T21:06:51.630Z,7.5
2022-11-17T21:12:30.345Z,7.4
2022-11-17T21:17:53.042Z,7.3
2022-11-17T21:23:36.308Z,7.1
2022-11-17T21:29:21.634Z,6.9
2022-11-17T21:34:48.608Z,6.8
2022-11-17T21:40:12.306Z,6.7
2022-11-17T21:45:34.878Z,6.6
2022-11-17T21:51:12.436Z,6.5
2022-11-17T21:56:50.208Z,6.4
2022-11-17T22:01:57.421Z,6.3
2022-11-17T22:07:36.519Z,6.2
2022-11-17T22:12:59.623Z,6.1
2022-11-17T22:18:36.721Z,6
2022-11-17T22:24:14.779Z,5.9
2022-11-17T22:30:07.188Z,5.8
2022-11-17T22:35:48.225Z,5.7
2022-11-17T22:41:11.081Z,5.6
2022-11-17T22:46:55.624Z,5.5
2022-11-17T22:52:33.231Z,5.4
2022-11-17T22:58:10.576Z,5.3
2022-11-17T23:03:38.507Z,5.2
2022-11-17T23:09:04.039Z,5.1
2022-11-17T23:20:39.065Z,4.9
2022-11-17T23:26:01.619Z,4.9
2022-11-17T23:31:39.580Z,4.8
2022-11-17T23:37:20.450Z,4.7
2022-11-17T23:42:59.926Z,4.6
2022-11-17T23:48:37.791Z,4.5
2022-11-17T23:54:15.341Z,4.4
2022-11-17T23:59:52.925Z,4.3
